createdAt,value
2023-03-27T00:02:35.418Z,80.2
2023-03-27T00:14:35.309Z,82.1
2023-03-27T00:26:35.363Z,81.4
2023-03-27T00:38:35.317Z,78.6
2023-03-27T00:50:35.412Z,79.0
2023-03-27T01:02:35.418Z,79.4
2023-03-27T01:14:35.322Z,80.0
2023-03-27T01:26:37.089Z,80.8
2023-03-27T01:38:35.400Z,81.7
2023-03-27T01:50:35.319Z,81.3
2023-03-27T02:02:35.359Z,82.2
2023-03-27T02:14:35.341Z,83.0
2023-03-27T02:26:35.416Z,83.5
2023-03-27T02:38:35.315Z,84.1
2023-03-27T02:50:35.665Z,85.5
2023-03-27T03:02:35.473Z,85.2
2023-03-27T03:14:35.325Z,84.8
2023-03-27T03:26:35.307Z,85.2
2023-03-27T03:38:38.114Z,86.2
2023-03-27T03:50:35.323Z,86.7
2023-03-27T04:02:35.445Z,87.5
2023-03-27T04:14:35.401Z,92.0
2023-03-27T04:26:35.479Z,92.0
2023-03-27T04:38:35.306Z,92.5
2023-03-27T04:50:35.789Z,93.2
2023-03-27T05:02:35.422Z,93.7
2023-03-27T05:14:35.321Z,93.9
2023-03-27T05:26:36.935Z,94.3
2023-03-27T05:38:35.311Z,94.2
2023-03-27T05:50:35.383Z,93.5
2023-03-27T06:02:35.443Z,88.9
2023-03-27T06:14:35.404Z,88.7
2023-03-27T06:26:35.372Z,88.7
2023-03-27T06:38:35.384Z,85.8
2023-03-27T06:50:35.439Z,84.6
2023-03-27T07:02:35.567Z,85.6
2023-03-27T07:14:35.405Z,81.9
2023-03-27T07:26:35.373Z,82.0
2023-03-27T07:38:35.312Z,79.0
2023-03-27T07:50:35.378Z,76.9
2023-03-27T08:02:35.497Z,77.9
2023-03-27T08:14:35.312Z,78.8
2023-03-27T08:26:35.425Z,83.6
2023-03-27T08:38:35.306Z,83.5
2023-03-27T08:50:35.372Z,81.1
2023-03-27T09:02:35.480Z,79.3
2023-03-27T09:14:35.314Z,79.6
2023-03-27T09:26:35.411Z,77.5
2023-03-27T09:38:35.334Z,73.3
2023-03-27T09:50:35.457Z,69.1
2023-03-27T10:02:35.419Z,63.8
2023-03-27T10:14:35.433Z,59.6
2023-03-27T10:26:35.404Z,66.3
2023-03-27T10:38:35.331Z,70.5
2023-03-27T10:50:35.446Z,81.9
2023-03-27T11:02:35.421Z,83.3
2023-03-27T11:14:35.382Z,85.6
2023-03-27T11:26:35.309Z,77.3
2023-03-27T11:38:35.318Z,70.7
2023-03-27T11:50:35.373Z,68.1
2023-03-27T12:02:35.469Z,61.6
2023-03-27T12:14:40.621Z,53.5
2023-03-27T12:26:35.426Z,56.1
2023-03-27T12:38:35.306Z,61.3
2023-03-27T12:50:35.403Z,60.2
2023-03-27T13:02:35.441Z,59.0
2023-03-27T13:14:35.401Z,62.1
2023-03-27T13:26:35.448Z,73.0
2023-03-27T13:38:35.622Z,78.3
2023-03-27T13:50:35.326Z,91.4
2023-03-27T14:02:35.405Z,90.5
2023-03-27T14:14:35.312Z,85.1
2023-03-27T14:26:35.304Z,80.0
2023-03-27T14:38:35.310Z,74.3
2023-03-27T14:50:35.311Z,72.3
2023-03-27T15:02:35.435Z,65.3
2023-03-27T15:14:35.341Z,65.3
2023-03-27T15:26:35.307Z,75.5
2023-03-27T15:38:35.457Z,73.2
2023-03-27T16:02:35.415Z,70.8
2023-03-27T16:14:35.314Z,67.8
2023-03-27T16:26:39.621Z,89.3
2023-03-27T16:38:35.312Z,88.7
2023-03-27T16:50:35.342Z,89.0
2023-03-27T17:02:35.371Z,88.9
2023-03-27T17:14:35.334Z,88.5
2023-03-27T17:26:35.330Z,88.3
2023-03-27T17:38:35.333Z,87.4
2023-03-27T17:50:35.316Z,88.7
2023-03-27T18:02:35.486Z,87.4
2023-03-27T18:14:35.324Z,88.8
2023-03-27T18:26:35.311Z,89.4
2023-03-27T18:38:35.311Z,89.1
2023-03-27T18:50:35.426Z,89.6
2023-03-27T19:02:35.459Z,91.1
2023-03-27T19:14:35.335Z,92.1
2023-03-27T19:26:35.327Z,92.6
2023-03-27T19:38:35.328Z,97.6
2023-03-27T19:50:35.334Z,97.4
2023-03-27T20:02:35.367Z,97.4
2023-03-27T20:14:35.326Z,96.2
2023-03-27T20:26:35.313Z,95.3
2023-03-27T20:38:35.321Z,94.7
2023-03-27T20:50:35.878Z,94.4
2023-03-27T21:02:35.388Z,94.2
2023-03-27T21:14:35.309Z,94.0
2023-03-27T21:26:35.329Z,94.4
2023-03-27T21:38:35.373Z,94.5
2023-03-27T21:50:35.401Z,94.8
2023-03-27T22:02:35.347Z,93.2
2023-03-27T22:14:35.337Z,92.3
2023-03-27T22:26:35.313Z,91.7
2023-03-27T22:38:35.306Z,91.9
2023-03-27T22:50:35.363Z,91.9
2023-03-27T23:02:35.461Z,91.5
2023-03-27T23:14:35.317Z,91.7
2023-03-27T23:26:35.318Z,91.4
2023-03-27T23:38:35.315Z,91.2
2023-03-27T23:50:35.325Z,91.3
